Time;durP1;ratioP1;P1;durP2;ratioP2;P2;SDS_P1;SDS_P2;PMS_P1;PMS_P2;Temp;Humidity;BMP_temperature;BMP_pressure;BME280_temperature;BME280_humidity;BME280_pressure;Samples;Min_cycle;Max_cycle;Signal;HPM_P1;HPM_P2
2022/01/26 00:00:55;;;;;;;;;;;2.40;99.90;;;;;;5032820;28;20037;-46
2022/01/26 00:06:21;;;;;;;72.10;30.73;;;2.40;99.90;;;;;;5053042;28;20094;-47
2022/01/26 00:08:48;;;;;;;57.00;22.95;;;2.40;99.90;;;;;;5037246;28;20022;-44
2022/01/26 00:11:13;;;;;;;54.22;22.33;;;2.40;99.90;;;;;;5032445;28;20425;-44
2022/01/26 00:13:39;;;;;;;57.88;21.63;;;2.40;99.90;;;;;;5031416;28;20163;-43
2022/01/26 00:16:09;;;;;;;55.53;23.52;;;2.40;99.90;;;;;;5028051;28;20508;-44
2022/01/26 00:18:37;;;;;;;55.78;23.75;;;2.30;99.90;;;;;;5030495;28;20412;-48
2022/01/26 00:21:16;;;;;;;51.78;23.13;;;2.30;99.90;;;;;;5049567;28;20028;-48
2022/01/26 00:26:32;;;;;;;59.90;25.88;;;2.30;99.90;;;;;;5052191;28;20057;-46
2022/01/26 00:29:09;;;;;;;54.17;23.17;;;2.40;99.90;;;;;;5034330;28;20029;-45
2022/01/26 00:40:08;;;;;;;64.57;26.15;;;2.20;99.90;;;;;;5031941;28;20105;-47
2022/01/26 00:42:38;;;;;;;63.33;23.50;;;2.20;99.90;;;;;;5031640;28;20033;-47
2022/01/26 00:45:08;;;;;;;66.80;25.92;;;2.20;99.90;;;;;;5031852;28;20430;-45
2022/01/26 00:47:35;;;;;;;59.17;23.65;;;2.20;99.90;;;;;;5031896;28;20411;-47
2022/01/26 00:50:06;;;;;;;53.78;22.92;;;2.10;99.90;;;;;;5031863;28;20071;-47
2022/01/26 00:52:40;;;;;;;56.65;23.25;;;2.10;99.90;;;;;;5031483;28;20052;-45
2022/01/26 00:55:09;;;;;;;53.40;22.25;;;2.10;99.90;;;;;;5031402;28;20036;-44
2022/01/26 00:57:34;;;;;;;63.97;23.52;;;2.10;99.90;;;;;;5030215;28;20040;-43
2022/01/26 01:00:00;;;;;;;62.58;22.33;;;2.10;99.90;;;;;;5031598;28;20100;-43
2022/01/26 01:02:26;;;;;;;51.83;23.95;;;2.00;99.90;;;;;;5031400;28;20026;-44
2022/01/26 01:04:53;;;;;;;60.70;22.05;;;2.00;99.90;;;;;;5031176;28;20033;-43
2022/01/26 01:07:22;;;;;;;60.97;22.52;;;2.10;99.90;;;;;;5030507;28;20032;-44
2022/01/26 01:09:47;;;;;;;49.95;19.38;;;2.10;99.90;;;;;;5028444;28;20025;-42
2022/01/26 01:12:13;;;;;;;48.90;19.75;;;2.10;99.90;;;;;;5030460;28;20120;-41
2022/01/26 01:14:41;;;;;;;54.50;20.85;;;2.10;99.90;;;;;;5030643;28;20430;-41
2022/01/26 01:17:10;;;;;;;43.55;19.30;;;2.00;99.90;;;;;;5031011;28;20026;-41
2022/01/26 01:19:45;;;;;;;55.55;22.15;;;2.10;99.90;;;;;;5030967;28;20230;-41
2022/01/26 01:22:22;;;;;;;47.67;18.60;;;2.00;99.90;;;;;;5030873;28;20563;-45
2022/01/26 01:25:12;;;;;;;47.95;19.52;;;2.20;99.90;;;;;;5030016;28;20335;-44
2022/01/26 01:27:49;;;;;;;49.40;19.73;;;2.20;99.90;;;;;;5030360;28;20544;-42
2022/01/26 01:32:52;;;;;;;49.92;20.00;;;2.20;99.90;;;;;;5034794;28;20447;-43
2022/01/26 01:35:18;;;;;;;41.90;20.45;;;2.20;99.90;;;;;;5033245;28;20029;-43
2022/01/26 01:37:44;;;;;;;42.60;21.17;;;2.20;99.90;;;;;;5034689;28;20492;-40
2022/01/26 01:40:10;;;;;;;47.03;20.83;;;2.20;99.90;;;;;;5034293;28;20041;-44
2022/01/26 01:42:36;;;;;;;43.65;20.27;;;2.20;99.90;;;;;;5033407;28;20026;-44
2022/01/26 01:45:02;;;;;;;44.47;19.80;;;2.10;99.90;;;;;;5033305;28;20538;-47
2022/01/26 01:47:28;;;;;;;46.08;18.67;;;2.20;99.90;;;;;;5034443;28;20067;-44
2022/01/26 01:49:54;;;;;;;44.70;19.27;;;2.20;99.90;;;;;;5033832;28;20037;-43
2022/01/26 01:52:19;;;;;;;37.55;16.90;;;2.20;99.90;;;;;;5034134;28;20490;-46
2022/01/26 01:54:51;;;;;;;35.75;17.08;;;2.30;99.90;;;;;;5033026;28;20373;-44
2022/01/26 01:57:25;;;;;;;37.17;17.00;;;2.20;99.90;;;;;;5033046;28;20091;-43
2022/01/26 01:59:51;;;;;;;35.95;16.50;;;2.10;99.90;;;;;;5031025;28;20017;-49
2022/01/26 02:02:17;;;;;;;37.90;17.20;;;2.10;99.90;;;;;;5032576;28;20032;-45
2022/01/26 02:07:24;;;;;;;40.30;17.42;;;2.10;99.90;;;;;;5051688;28;20056;-42
2022/01/26 02:09:49;;;;;;;37.30;17.15;;;2.00;99.90;;;;;;5053381;28;20388;-38
2022/01/26 02:12:19;;;;;;;36.33;16.58;;;2.10;99.90;;;;;;5053789;28;20032;-39
2022/01/26 02:14:50;;;;;;;113.05;53.40;;;2.00;99.90;;;;;;5054162;28;20431;-42
2022/01/26 02:50:59;;;;;;;36.38;14.70;;;1.90;99.90;;;;;;5010770;28;20109;-44
2022/01/26 02:55:50;;;;;;;32.15;15.07;;;1.90;99.90;;;;;;5033768;28;20034;-42
2022/01/26 03:03:48;;;;;;;36.03;16.50;;;1.70;99.90;;;;;;5033861;28;20021;-45
2022/01/26 03:06:18;;;;;;;43.22;15.82;;;1.80;99.90;;;;;;5033853;28;20033;-46
2022/01/26 03:08:52;;;;;;;41.72;17.67;;;1.80;99.90;;;;;;5034066;28;20519;-42
2022/01/26 03:11:18;;;;;;;40.92;16.42;;;1.80;99.90;;;;;;5034456;28;20416;-41
2022/01/26 03:13:50;;;;;;;43.55;17.23;;;1.80;99.90;;;;;;5034264;28;20030;-46
2022/01/26 03:16:23;;;;;;;40.28;17.05;;;1.80;99.90;;;;;;5034528;28;20025;-41
2022/01/26 03:21:43;;;;;;;37.63;15.15;;;1.80;99.90;;;;;;5033908;28;20427;-43
2022/01/26 03:34:42;;;;;;;40.58;16.50;;;1.80;99.90;;;;;;5033046;28;20396;-38
2022/01/26 03:37:09;;;;;;;43.42;16.63;;;2.00;99.90;;;;;;5033260;28;20463;-39
2022/01/26 03:39:43;;;;;;;38.60;14.60;;;2.00;99.90;;;;;;5033020;28;20842;-44
2022/01/26 03:42:13;;;;;;;31.08;14.88;;;1.90;99.90;;;;;;5033211;28;20021;-39
2022/01/26 03:44:39;;;;;;;33.83;13.93;;;1.90;99.90;;;;;;5032804;28;20025;-37
2022/01/26 03:47:06;;;;;;;35.47;14.80;;;2.00;99.90;;;;;;5032953;28;20123;-43
2022/01/26 03:49:31;;;;;;;27.88;12.98;;;2.00;99.90;;;;;;5032760;28;20045;-48
2022/01/26 03:51:57;;;;;;;25.65;12.98;;;2.00;99.90;;;;;;5033031;28;20029;-44
2022/01/26 03:54:23;;;;;;;29.42;14.43;;;2.00;99.90;;;;;;5032485;28;20378;-47
2022/01/26 03:56:48;;;;;;;30.60;15.23;;;1.90;99.90;;;;;;5032699;28;20026;-36
2022/01/26 03:59:14;;;;;;;33.65;14.35;;;1.80;99.90;;;;;;5032788;28;20021;-47
2022/01/26 04:01:40;;;;;;;32.88;14.10;;;1.80;99.90;;;;;;5032953;28;20088;-43
2022/01/26 04:04:06;;;;;;;25.55;13.00;;;2.00;99.90;;;;;;5032376;28;20029;-45
2022/01/26 04:06:32;;;;;;;29.35;13.82;;;1.90;99.90;;;;;;5032757;28;20030;-42
2022/01/26 04:08:58;;;;;;;24.75;13.25;;;1.90;99.90;;;;;;5032496;28;20109;-37
2022/01/26 04:11:35;;;;;;;30.17;13.30;;;2.00;99.90;;;;;;5032467;28;20105;-42
2022/01/26 04:14:05;;;;;;;31.77;14.05;;;2.00;99.90;;;;;;5032077;28;20025;-45
2022/01/26 04:16:31;;;;;;;33.67;13.90;;;2.10;99.90;;;;;;5032122;28;20056;-46
2022/01/26 04:18:57;;;;;;;28.20;14.15;;;2.10;99.90;;;;;;5032382;28;20060;-42
2022/01/26 04:24:07;;;;;;;33.33;14.73;;;2.10;99.90;;;;;;5032334;28;20026;-39
2022/01/26 04:26:43;;;;;;;23.42;12.15;;;2.10;99.90;;;;;;5032236;28;20017;-43
2022/01/26 04:29:14;;;;;;;21.85;11.85;;;2.10;99.90;;;;;;5032450;28;20439;-43
2022/01/26 04:31:40;;;;;;;27.48;12.00;;;2.00;99.90;;;;;;5032851;28;20021;-41
2022/01/26 04:34:05;;;;;;;22.40;12.35;;;2.00;99.90;;;;;;5033108;28;20170;-45
2022/01/26 04:36:41;;;;;;;24.05;12.05;;;2.00;99.90;;;;;;5032411;28;20057;-37
2022/01/26 04:39:11;;;;;;;;;;;1.90;99.90;;;;;;5033325;28;20018;-41
2022/01/26 04:41:46;;;;;;;22.65;10.80;;;1.80;99.90;;;;;;5033629;28;20004;-45
2022/01/26 04:44:21;;;;;;;27.60;13.40;;;1.70;99.90;;;;;;5031778;28;20017;-42
2022/01/26 04:46:47;;;;;;;;;;;1.60;99.90;;;;;;5032453;28;20056;-52
2022/01/26 04:49:12;;;;;;;;;;;1.70;99.90;;;;;;5032279;28;19905;-46
2022/01/26 04:51:38;;;;;;;25.73;13.03;;;1.70;99.90;;;;;;5031868;28;19912;-45
2022/01/26 04:54:04;;;;;;;25.13;13.20;;;1.70;99.90;;;;;;5031665;28;20025;-44
2022/01/26 04:56:29;;;;;;;24.65;13.15;;;1.70;99.90;;;;;;5031095;28;20104;-43
2022/01/26 04:58:55;;;;;;;25.05;12.02;;;1.70;99.90;;;;;;5031684;28;20045;-44
2022/01/26 05:01:20;;;;;;;28.08;12.95;;;1.60;99.90;;;;;;5031745;28;20104;-44
2022/01/26 05:03:46;;;;;;;29.40;13.95;;;1.60;99.90;;;;;;5031022;28;20027;-42
2022/01/26 05:06:12;;;;;;;31.02;12.98;;;1.70;99.90;;;;;;5031437;28;20111;-44
2022/01/26 05:08:38;;;;;;;28.27;13.13;;;1.70;99.90;;;;;;5032025;28;20400;-43
2022/01/26 05:11:06;;;;;;;23.42;12.40;;;1.70;99.90;;;;;;5031874;28;20017;-46
2022/01/26 05:13:31;;;;;;;25.38;12.30;;;1.80;99.90;;;;;;5031220;28;20496;-45
2022/01/26 05:15:57;;;;;;;29.50;13.90;;;1.80;99.90;;;;;;5031616;28;20021;-45
2022/01/26 05:18:24;;;;;;;28.35;15.10;;;1.80;99.90;;;;;;5031547;28;20480;-38
2022/01/26 05:20:50;;;;;;;27.42;14.60;;;1.90;99.90;;;;;;5031460;28;20388;-45
2022/01/26 05:23:15;;;;;;;27.10;14.25;;;1.80;99.90;;;;;;5031319;28;20104;-45
2022/01/26 05:25:41;;;;;;;27.17;14.88;;;1.80;99.90;;;;;;5031388;28;20036;-41
2022/01/26 05:28:06;;;;;;;29.95;14.15;;;1.80;99.90;;;;;;5031545;28;20025;-43
2022/01/26 05:30:32;;;;;;;27.98;14.65;;;1.70;99.90;;;;;;5031204;28;20029;-45
2022/01/26 05:32:57;;;;;;;28.55;14.82;;;1.80;99.90;;;;;;5031264;28;20022;-38
2022/01/26 05:35:23;;;;;;;30.95;15.13;;;1.70;99.90;;;;;;5031371;28;20056;-43
2022/01/26 05:37:49;;;;;;;33.53;16.52;;;1.80;99.90;;;;;;5031232;28;20032;-45
2022/01/26 05:40:14;;;;;;;29.33;16.67;;;1.60;99.90;;;;;;5031311;28;20054;-43
2022/01/26 05:42:41;;;;;;;35.38;16.27;;;1.70;99.90;;;;;;5031140;28;20025;-41
2022/01/26 05:45:17;;;;;;;33.28;16.65;;;1.70;99.90;;;;;;5031036;28;20476;-43
2022/01/26 05:47:43;;;;;;;32.25;15.65;;;1.70;99.90;;;;;;5031453;28;20052;-40
2022/01/26 05:50:09;;;;;;;31.98;15.40;;;1.70;99.90;;;;;;5031092;28;20109;-42
2022/01/26 05:52:34;;;;;;;31.23;15.40;;;1.70;99.90;;;;;;5031169;28;20501;-43
2022/01/26 05:55:00;;;;;;;35.30;14.63;;;1.70;99.90;;;;;;5030176;28;20273;-43
2022/01/26 05:57:25;;;;;;;34.70;15.70;;;1.70;99.90;;;;;;5031011;28;20416;-41
2022/01/26 05:59:53;;;;;;;30.60;15.07;;;1.70;99.90;;;;;;5031067;28;20021;-42
2022/01/26 06:02:19;;;;;;;29.10;13.93;;;1.70;99.90;;;;;;5031069;28;20444;-41
2022/01/26 06:04:44;;;;;;;27.60;14.55;;;1.70;99.90;;;;;;5030712;28;20026;-41
2022/01/26 06:07:10;;;;;;;34.63;15.82;;;1.70;99.90;;;;;;5031037;28;20037;-44
2022/01/26 06:09:35;;;;;;;30.92;14.82;;;1.70;99.90;;;;;;5030827;28;20396;-43
2022/01/26 06:12:01;;;;;;;35.10;15.52;;;1.80;99.90;;;;;;5031232;28;20025;-44
2022/01/26 06:14:26;;;;;;;34.95;15.60;;;1.80;99.90;;;;;;5029429;28;20036;-46
2022/01/26 06:16:52;;;;;;;32.25;14.13;;;1.70;99.90;;;;;;5033325;28;20029;-44
2022/01/26 06:19:17;;;;;;;35.17;15.65;;;1.80;99.90;;;;;;5034452;28;20044;-38
2022/01/26 06:21:43;;;;;;;32.85;14.88;;;1.80;99.90;;;;;;5034460;28;20021;-44
2022/01/26 06:24:09;;;;;;;30.00;14.75;;;1.80;99.90;;;;;;5032781;28;20084;-44
2022/01/26 06:26:34;;;;;;;30.75;14.85;;;1.70;99.90;;;;;;5034396;28;20091;-38
2022/01/26 06:29:00;;;;;;;34.40;15.32;;;1.80;99.90;;;;;;5034257;28;20021;-45
2022/01/26 06:31:27;;;;;;;32.78;15.65;;;1.70;99.90;;;;;;5034216;28;20021;-41
2022/01/26 06:33:54;;;;;;;40.65;17.00;;;1.70;99.90;;;;;;5033868;28;20045;-44
2022/01/26 06:36:19;;;;;;;30.50;15.45;;;1.80;99.90;;;;;;5033906;28;20051;-37
2022/01/26 06:38:46;;;;;;;31.17;15.15;;;1.70;99.90;;;;;;5034118;28;20026;-44
2022/01/26 06:41:13;;;;;;;32.28;15.52;;;1.90;99.90;;;;;;5033972;28;20041;-45
2022/01/26 06:43:53;;;;;;;31.05;15.20;;;1.90;99.90;;;;;;5033876;28;20058;-45
2022/01/26 06:46:25;;;;;;;30.67;15.45;;;1.90;99.90;;;;;;5034245;28;20473;-44
2022/01/26 06:49:03;;;;;;;33.47;14.77;;;2.00;99.90;;;;;;5033886;28;20030;-39
2022/01/26 06:51:29;;;;;;;30.83;14.50;;;2.00;99.90;;;;;;5032577;28;20037;-43
2022/01/26 06:53:54;;;;;;;27.48;14.35;;;2.10;99.90;;;;;;5033726;28;20022;-45
2022/01/26 06:56:20;;;;;;;30.33;14.85;;;2.10;99.90;;;;;;5033118;28;20017;-43
2022/01/26 06:58:45;;;;;;;30.83;15.57;;;2.10;99.90;;;;;;5033776;28;20022;-45
2022/01/26 07:01:11;;;;;;;31.40;14.73;;;2.00;99.90;;;;;;5033617;28;20025;-46
2022/01/26 07:03:36;;;;;;;34.10;14.93;;;2.20;99.90;;;;;;5033570;28;20021;-43
2022/01/26 07:06:02;;;;;;;28.70;14.63;;;2.30;99.90;;;;;;5033343;28;20037;-47
2022/01/26 07:08:27;;;;;;;29.17;14.65;;;2.40;99.90;;;;;;5033803;28;20022;-46
2022/01/26 07:10:53;;;;;;;29.88;15.05;;;2.40;99.90;;;;;;5033901;28;20385;-37
2022/01/26 07:13:19;;;;;;;30.63;15.23;;;2.30;99.90;;;;;;5033314;28;20480;-43
2022/01/26 07:23:38;;;;;;;30.13;14.25;;;2.20;99.90;;;;;;5033186;28;20468;-43
2022/01/26 07:26:04;;;;;;;25.05;13.20;;;2.30;99.90;;;;;;5032893;28;20022;-48
2022/01/26 07:28:35;;;;;;;27.67;14.82;;;2.20;99.90;;;;;;5031879;28;20053;-44
2022/01/26 07:31:01;;;;;;;27.90;14.02;;;2.10;99.90;;;;;;5033217;28;20028;-44
2022/01/26 07:33:26;;;;;;;25.88;13.43;;;2.10;99.90;;;;;;5033016;28;20025;-44
2022/01/26 07:35:52;;;;;;;26.20;15.07;;;2.10;99.90;;;;;;5033185;28;20022;-37
2022/01/26 07:38:18;;;;;;;27.80;13.93;;;2.10;99.90;;;;;;5033876;28;20087;-42
2022/01/26 07:40:44;;;;;;;21.20;13.23;;;2.20;99.90;;;;;;5033043;28;20018;-42
2022/01/26 07:43:09;;;;;;;23.00;13.20;;;2.30;99.90;;;;;;5032826;28;20431;-42
2022/01/26 07:45:35;;;;;;;24.52;12.43;;;2.30;99.90;;;;;;5032772;28;20053;-40
2022/01/26 07:48:00;;;;;;;20.33;12.07;;;2.30;99.90;;;;;;5032860;28;20401;-44
2022/01/26 07:50:26;;;;;;;24.65;14.15;;;2.20;99.90;;;;;;5032863;28;20072;-41
2022/01/26 07:52:52;;;;;;;24.33;13.20;;;2.20;99.90;;;;;;5032563;28;20021;-44
2022/01/26 07:55:20;;;;;;;20.63;12.15;;;2.40;99.90;;;;;;5032320;28;20029;-41
2022/01/26 07:57:49;;;;;;;18.48;10.95;;;2.50;99.90;;;;;;5032575;28;20017;-46
2022/01/26 08:00:15;;;;;;;19.55;12.27;;;2.50;99.90;;;;;;5031847;28;20530;-44
2022/01/26 08:02:45;;;;;;;19.55;12.10;;;2.40;99.90;;;;;;5031711;28;20063;-45
2022/01/26 08:05:11;;;;;;;17.00;11.27;;;2.40;99.90;;;;;;5032856;28;20022;-43
2022/01/26 08:07:37;;;;;;;17.10;11.07;;;2.40;99.90;;;;;;5033144;22;20050;-54
2022/01/26 08:10:09;;;;;;;13.20;9.18;;;2.30;99.90;;;;;;5011740;28;20140;-45
2022/01/26 08:12:36;;;;;;;17.67;10.35;;;2.30;99.90;;;;;;5015910;28;20025;-48
2022/01/26 08:15:02;;;;;;;17.20;10.02;;;2.30;99.90;;;;;;5016702;28;20053;-47
2022/01/26 08:17:27;;;;;;;15.60;10.30;;;2.20;99.90;;;;;;5009825;28;20042;-47
2022/01/26 08:19:55;;;;;;;16.55;10.05;;;2.10;99.90;;;;;;5010394;28;20041;-48
2022/01/26 08:22:22;;;;;;;21.20;10.63;;;2.10;99.90;;;;;;5024024;28;20388;-46
2022/01/26 08:24:49;;;;;;;14.70;9.13;;;2.10;99.90;;;;;;5011179;28;20032;-49
2022/01/26 08:27:16;;;;;;;18.05;9.70;;;2.10;99.90;;;;;;5014047;28;20053;-47
2022/01/26 08:29:46;;;;;;;14.63;9.63;;;2.10;99.90;;;;;;4992794;28;20457;-45
2022/01/26 08:32:12;;;;;;;14.88;9.88;;;2.10;99.90;;;;;;4999183;28;20481;-46
2022/01/26 08:34:38;;;;;;;18.63;11.07;;;2.10;99.90;;;;;;5011613;28;20125;-51
2022/01/26 08:37:04;;;;;;;14.23;9.60;;;2.10;99.90;;;;;;5011983;28;20083;-48
2022/01/26 08:39:30;;;;;;;15.10;9.63;;;2.20;99.90;;;;;;5010824;28;20030;-47
2022/01/26 08:41:55;;;;;;;13.82;9.48;;;2.20;99.90;;;;;;5009893;28;20030;-43
2022/01/26 08:44:22;;;;;;;13.43;9.10;;;2.20;99.90;;;;;;5010223;28;20405;-47
2022/01/26 08:46:47;;;;;;;16.05;9.30;;;2.20;99.90;;;;;;5011537;28;20050;-44
2022/01/26 08:49:14;;;;;;;17.23;9.60;;;2.10;99.90;;;;;;5010606;28;20084;-45
2022/01/26 08:51:39;;;;;;;14.65;9.95;;;2.10;99.90;;;;;;5011878;28;20029;-47
2022/01/26 08:54:06;;;;;;;14.48;9.80;;;2.20;99.90;;;;;;5011464;28;20029;-45
2022/01/26 08:56:32;;;;;;;15.80;10.38;;;2.20;99.90;;;;;;5010430;28;20165;-45
2022/01/26 08:58:58;;;;;;;16.98;10.98;;;2.10;99.90;;;;;;5011794;28;20524;-46
2022/01/26 09:01:24;;;;;;;18.05;10.82;;;2.20;99.90;;;;;;5011841;28;20036;-43
2022/01/26 09:03:49;;;;;;;20.40;11.65;;;2.20;99.90;;;;;;5011112;28;20053;-45
2022/01/26 09:06:15;;;;;;;17.75;10.52;;;2.10;99.90;;;;;;5011384;28;20145;-43
2022/01/26 09:08:45;;;;;;;20.48;10.77;;;2.10;99.90;;;;;;5011828;28;20060;-43
2022/01/26 09:11:12;;;;;;;19.00;11.00;;;2.20;99.90;;;;;;5011597;28;20026;-42
2022/01/26 09:13:37;;;;;;;22.05;11.23;;;2.10;99.90;;;;;;5009804;28;20026;-42
2022/01/26 09:16:06;;;;;;;20.85;12.18;;;2.20;99.90;;;;;;5011699;28;20457;-44
2022/01/26 09:18:51;;;;;;;20.42;11.23;;;2.20;99.90;;;;;;5011920;28;20485;-42
2022/01/26 09:21:17;;;;;;;19.30;11.40;;;2.20;99.90;;;;;;5010981;28;20413;-42
2022/01/26 09:23:43;;;;;;;19.27;11.38;;;2.30;99.90;;;;;;5011232;28;20018;-41
2022/01/26 09:26:08;;;;;;;19.45;11.57;;;2.20;99.90;;;;;;5011589;28;20080;-42
2022/01/26 09:28:34;;;;;;;19.00;11.23;;;2.20;99.90;;;;;;5010288;28;20385;-42
2022/01/26 09:31:00;;;;;;;18.52;11.77;;;2.10;99.90;;;;;;5011379;28;20539;-41
2022/01/26 09:33:25;;;;;;;20.20;11.50;;;2.20;99.90;;;;;;5010088;28;20034;-45
2022/01/26 09:35:51;;;;;;;25.58;12.45;;;2.20;99.90;;;;;;5011548;28;20037;-45
2022/01/26 09:38:19;;;;;;;20.88;11.60;;;2.30;99.90;;;;;;5011453;28;20485;-46
2022/01/26 09:40:49;;;;;;;19.75;11.73;;;2.30;99.90;;;;;;5011699;28;20026;-44
2022/01/26 09:43:16;;;;;;;23.10;11.98;;;2.20;99.90;;;;;;5011263;28;20125;-43
2022/01/26 09:45:42;;;;;;;19.77;12.10;;;2.20;99.90;;;;;;5011360;28;20048;-43
2022/01/26 09:48:08;;;;;;;16.98;11.40;;;2.20;99.90;;;;;;5011477;28;20018;-46
2022/01/26 09:50:34;;;;;;;22.15;13.18;;;2.20;99.90;;;;;;5013513;28;20022;-42
2022/01/26 09:53:00;;;;;;;22.00;11.82;;;2.20;99.90;;;;;;5014673;28;20131;-46
2022/01/26 09:55:26;;;;;;;20.33;12.55;;;2.20;99.90;;;;;;5015154;28;20383;-45
2022/01/26 09:57:58;;;;;;;17.63;10.73;;;2.20;99.90;;;;;;5015082;28;20030;-42
2022/01/26 10:00:24;;;;;;;15.13;10.48;;;2.20;99.90;;;;;;5015043;28;20101;-45
2022/01/26 10:03:04;;;;;;;18.02;10.27;;;2.20;99.90;;;;;;5014756;28;20417;-44
2022/01/26 10:05:43;;;;;;;14.93;9.15;;;2.20;99.90;;;;;;5015265;28;20036;-44
2022/01/26 10:18:57;;;;;;;16.55;9.55;;;2.20;99.90;;;;;;5014150;28;20038;-45
2022/01/26 10:21:25;;;;;;;13.65;8.95;;;2.20;99.90;;;;;;5014615;28;20096;-42
2022/01/26 10:23:52;;;;;;;13.63;9.20;;;2.20;99.90;;;;;;5013123;28;20152;-40
2022/01/26 10:26:19;;;;;;;20.00;9.73;;;2.30;99.90;;;;;;5011337;28;20517;-42
2022/01/26 10:28:57;;;;;;;13.65;8.93;;;2.30;99.90;;;;;;5012196;28;20045;-46
2022/01/26 10:31:24;;;;;;;12.48;8.57;;;2.20;99.90;;;;;;5012662;28;20018;-45
2022/01/26 10:34:06;;;;;;;16.02;9.65;;;2.20;99.90;;;;;;5013183;28;20018;-50
2022/01/26 10:36:37;;;;;;;15.65;9.05;;;2.20;99.90;;;;;;5013543;28;20025;-49
2022/01/26 10:39:30;;;;;;;13.32;8.77;;;2.20;99.90;;;;;;5010359;28;20253;-47
2022/01/26 10:42:01;;;;;;;17.02;9.90;;;2.20;99.90;;;;;;5018524;28;20022;-45
2022/01/26 10:44:34;;;;;;;14.07;8.88;;;2.20;99.90;;;;;;5013527;28;20311;-47
2022/01/26 10:47:02;;;;;;;17.17;8.45;;;2.30;99.90;;;;;;5010064;28;20125;-45
2022/01/26 10:49:55;;;;;;;13.85;8.82;;;2.30;99.90;;;;;;5012463;28;20014;-47
2022/01/26 10:52:33;;;;;;;12.48;8.32;;;2.20;99.90;;;;;;5013724;28;20021;-47
2022/01/26 10:54:58;;;;;;;13.48;8.85;;;2.20;99.90;;;;;;5011907;28;20087;-45
2022/01/26 10:57:25;;;;;;;11.63;7.90;;;2.20;99.90;;;;;;5013395;28;20030;-46
2022/01/26 10:59:52;;;;;;;12.48;8.30;;;2.20;99.90;;;;;;5013536;28;20022;-54
2022/01/26 11:02:23;;;;;;;13.73;8.68;;;2.20;99.90;;;;;;5010656;28;20076;-46
2022/01/26 11:04:49;;;;;;;14.32;9.05;;;2.20;99.90;;;;;;5011630;28;20558;-48
2022/01/26 11:07:16;;;;;;;12.05;8.13;;;2.20;99.90;;;;;;5012586;28;20137;-50
2022/01/26 11:09:48;;;;;;;10.90;7.70;;;2.20;99.90;;;;;;5012940;28;20452;-46
2022/01/26 11:12:16;;;;;;;16.42;8.60;;;2.30;99.90;;;;;;5014024;28;20366;-45
2022/01/26 11:14:46;;;;;;;10.52;7.32;;;2.30;99.90;;;;;;5013082;28;20409;-48
2022/01/26 11:17:28;;;;;;;12.52;7.65;;;2.30;99.90;;;;;;5013240;28;20393;-49
2022/01/26 11:19:57;;;;;;;12.65;8.45;;;2.30;99.90;;;;;;5013356;28;20088;-47
2022/01/26 11:22:27;;;;;;;11.60;7.80;;;2.30;99.90;;;;;;5013305;28;20026;-49
2022/01/26 11:24:54;;;;;;;12.57;8.20;;;2.40;99.90;;;;;;5012888;28;20022;-44
2022/01/26 11:27:20;;;;;;;12.23;7.97;;;2.30;99.90;;;;;;5012645;28;20037;-47
2022/01/26 11:29:55;;;;;;;10.77;8.02;;;2.20;99.90;;;;;;5012728;28;20030;-42
2022/01/26 11:32:33;;;;;;;11.27;7.30;;;2.20;99.90;;;;;;5013235;28;20050;-46
2022/01/26 11:35:03;;;;;;;13.07;7.40;;;2.30;99.90;;;;;;5013120;28;20391;-46
2022/01/26 11:37:49;;;;;;;10.32;7.47;;;2.30;99.90;;;;;;5013213;28;20503;-46
2022/01/26 11:46:09;;;;;;;14.45;8.93;;;2.30;99.90;;;;;;5015586;28;20037;-48
2022/01/26 11:48:35;;;;;;;15.20;8.43;;;2.30;99.90;;;;;;4998194;28;20029;-49
2022/01/26 11:51:03;;;;;;;17.20;8.55;;;2.40;99.90;;;;;;5012876;28;20040;-47
2022/01/26 11:53:30;;;;;;;15.23;8.75;;;2.40;99.90;;;;;;5011401;28;20043;-45
2022/01/26 11:56:07;;;;;;;11.25;7.45;;;2.40;99.90;;;;;;5012570;28;20108;-44
2022/01/26 11:58:45;;;;;;;11.57;8.07;;;2.40;99.90;;;;;;5012496;28;20505;-48
2022/01/26 12:01:23;;;;;;;15.90;7.65;;;2.40;99.90;;;;;;5012263;28;20030;-47
2022/01/26 12:04:01;;;;;;;20.35;8.18;;;2.30;99.90;;;;;;5012426;28;20026;-48
2022/01/26 12:06:30;;;;;;;13.02;8.15;;;2.40;99.90;;;;;;5011395;28;20036;-47
2022/01/26 12:08:59;;;;;;;11.60;7.63;;;2.40;99.90;;;;;;5012430;28;20191;-46
2022/01/26 12:11:25;;;;;;;14.40;8.18;;;2.40;99.90;;;;;;5012244;28;20418;-46
2022/01/26 12:13:58;;;;;;;14.05;8.23;;;2.40;99.90;;;;;;5011293;28;20026;-44
2022/01/26 12:16:33;;;;;;;13.85;8.90;;;2.40;99.90;;;;;;5011412;28;20018;-46
2022/01/26 12:19:12;;;;;;;15.55;8.35;;;2.40;99.90;;;;;;5012340;28;20157;-51
2022/01/26 12:33:31;;;;;;;13.13;8.77;;;2.40;99.90;;;;;;5011813;28;20117;-44
2022/01/26 12:36:00;;;;;;;14.88;8.43;;;2.40;99.90;;;;;;5011946;28;20026;-46
2022/01/26 12:38:48;;;;;;;13.95;9.35;;;2.50;99.90;;;;;;5011529;28;20583;-45
2022/01/26 12:43:53;;;;;;;14.40;9.65;;;2.50;99.90;;;;;;5011478;28;20026;-48
2022/01/26 12:46:28;;;;;;;15.05;8.75;;;2.50;99.90;;;;;;5008650;28;20044;-45
2022/01/26 12:48:55;;;;;;;12.93;7.85;;;2.50;99.90;;;;;;5011394;28;20018;-48
2022/01/26 12:51:22;;;;;;;13.25;8.48;;;2.50;99.90;;;;;;5010928;28;20041;-44
2022/01/26 12:53:56;;;;;;;13.80;9.25;;;2.50;99.90;;;;;;5010562;28;20040;-45
2022/01/26 12:56:25;;;;;;;12.43;8.05;;;2.60;99.90;;;;;;4999181;28;20021;-45
2022/01/26 12:59:00;;;;;;;15.68;9.73;;;2.60;99.90;;;;;;5008152;28;20405;-44
2022/01/26 13:01:26;;;;;;;11.80;8.48;;;2.60;99.90;;;;;;5011337;28;20481;-45
2022/01/26 13:03:57;;;;;;;15.88;10.00;;;2.60;99.90;;;;;;5010789;28;20110;-45
2022/01/26 13:06:24;;;;;;;17.67;8.77;;;2.70;99.90;;;;;;4991363;28;20449;-48
2022/01/26 13:08:54;;;;;;;19.42;10.75;;;2.70;99.90;;;;;;5008257;28;20084;-43
2022/01/26 13:11:28;;;;;;;18.63;8.27;;;2.70;99.90;;;;;;5010675;28;20485;-44
2022/01/26 13:14:10;;;;;;;16.42;8.52;;;2.70;99.90;;;;;;5010568;28;20030;-45
2022/01/26 13:16:38;;;;;;;14.02;10.15;;;2.70;99.90;;;;;;5011092;28;20080;-45
2022/01/26 13:19:55;;;;;;;21.20;11.23;;;2.80;99.90;;;;;;5010688;28;20428;-46
2022/01/26 13:24:55;;;;;;;22.50;9.45;;;2.70;99.90;;;;;;5010762;28;20034;-43
2022/01/26 13:27:34;;;;;;;15.35;9.63;;;2.70;99.90;;;;;;5011652;28;20137;-48
2022/01/26 13:40:53;;;;;;;17.55;10.70;;;2.80;99.90;;;;;;5015285;28;20486;-47
2022/01/26 13:56:55;;;;;;;24.17;12.15;;;3.00;99.90;;;;;;5015196;28;20018;-45
2022/01/26 14:02:19;;;;;;;19.20;11.90;;;2.90;99.90;;;;;;4992379;28;20032;-43
2022/01/26 14:04:44;;;;;;;19.88;11.15;;;2.90;99.90;;;;;;5014714;28;20017;-46
2022/01/26 14:07:10;;;;;;;20.50;11.65;;;2.80;99.90;;;;;;5045202;22;20045;-48
2022/01/26 14:09:37;;;;;;;25.33;12.55;;;2.80;99.90;;;;;;5034800;28;20033;-49
2022/01/26 14:12:04;;;;;;;21.23;12.02;;;2.80;99.90;;;;;;5034756;28;20074;-45
2022/01/26 14:14:35;;;;;;;20.15;12.20;;;2.80;99.90;;;;;;5034279;28;20382;-47
2022/01/26 14:17:03;;;;;;;23.08;13.20;;;2.80;99.90;;;;;;5034695;28;20026;-48
2022/01/26 14:27:22;;;;;;;27.75;12.63;;;2.90;99.90;;;;;;5023749;28;20076;-51
2022/01/26 14:32:44;;;;;;;24.23;14.30;;;2.90;99.90;;;;;;5030944;28;20025;-49
2022/01/26 14:56:17;;;;;;;25.40;14.65;;;3.20;99.90;;;;;;5034382;28;20053;-49
2022/01/26 15:10:43;;;;;;;31.33;16.70;;;3.30;99.90;;;;;;5032298;28;20032;-48
2022/01/26 15:29:58;;;;;;;32.28;17.10;;;3.30;99.90;;;;;;5028133;28;20026;-47
2022/01/26 15:33:07;;;;;;;28.77;16.73;;;3.30;99.90;;;;;;5032612;28;20049;-48
2022/01/26 15:40:26;;;;;;;30.58;16.17;;;3.30;99.90;;;;;;5033063;28;20036;-45
2022/01/26 15:51:00;;;;;;;29.75;16.23;;;3.10;99.90;;;;;;5032808;28;20147;-50
2022/01/26 15:57:20;;;;;;;34.42;17.52;;;3.10;99.90;;;;;;5032590;28;20029;-45
2022/01/26 16:04:27;;;;;;;31.25;16.52;;;3.00;99.90;;;;;;5032601;28;20508;-46
2022/01/26 16:12:43;;;;;;;29.42;16.30;;;3.00;99.90;;;;;;5032707;28;20071;-44
2022/01/26 16:20:49;;;;;;;32.97;16.42;;;3.00;99.90;;;;;;5032423;28;20029;-49
2022/01/26 16:37:43;;;;;;;29.10;16.55;;;2.90;99.90;;;;;;5032167;28;20040;-43
2022/01/26 17:21:16;;;;;;;32.05;16.98;;;2.80;99.90;;;;;;5031302;28;20033;-46
2022/01/26 18:13:00;;;;;;;34.50;16.85;;;2.70;99.90;;;;;;5027119;28;20485;-46
2022/01/26 18:13:15;;;;;;;36.00;18.80;;;2.80;99.90;;;;;;5028318;28;20086;-41
2022/01/26 18:40:30;;;;;;;38.20;19.55;;;2.70;99.90;;;;;;5031344;28;20044;-48
2022/01/26 18:51:03;;;;;;;34.63;17.95;;;2.70;99.90;;;;;;5033632;28;20117;-45
2022/01/26 18:53:29;;;;;;;35.97;18.45;;;2.70;99.90;;;;;;5032348;28;20041;-47
2022/01/26 18:55:54;;;;;;;38.00;19.00;;;2.70;99.90;;;;;;5033589;28;20042;-45
2022/01/26 18:58:20;;;;;;;30.00;17.95;;;2.70;99.90;;;;;;5033126;28;20548;-45
2022/01/26 19:00:46;;;;;;;31.60;17.95;;;2.70;99.90;;;;;;5033090;28;20032;-45
2022/01/26 19:03:12;;;;;;;32.83;17.73;;;2.70;99.90;;;;;;5021141;28;20097;-47